Time;durP1;ratioP1;P1;durP2;ratioP2;P2;SDS_P1;SDS_P2;PMS_P1;PMS_P2;Temp;Humidity;BMP_temperature;BMP_pressure;BME280_temperature;BME280_humidity;BME280_pressure;Samples;Min_cycle;Max_cycle;Signal;HPM_P1;HPM_P2
2022/11/01 10:19:40;;;;;;;2.20;1.42;;;;;;;15.71;100.00;99332.66;5093755;27;20162;-79
2022/11/01 10:22:13;;;;;;;4.43;1.40;;;;;;;15.90;98.74;99338.34;5105865;28;20055;-80
2022/11/01 10:24:47;;;;;;;3.40;1.80;;;;;;;16.00;100.00;99332.38;5102033;28;20044;-80
2022/11/01 10:27:20;;;;;;;5.22;1.45;;;;;;;16.17;98.05;99351.94;5108537;28;20052;-79
2022/11/01 10:29:58;;;;;;;6.68;1.00;;;;;;;16.23;97.00;99343.69;5098417;28;20051;-79
2022/11/01 10:32:31;;;;;;;1.55;1.10;;;;;;;16.32;99.76;99338.81;5092244;28;20052;-81
2022/11/01 10:35:04;;;;;;;5.07;1.50;;;;;;;16.44;95.84;99341.72;5089855;28;20060;-81
2022/11/01 10:37:39;;;;;;;5.15;1.60;;;;;;;16.32;93.23;99335.22;5092463;28;20047;-81
2022/11/01 10:40:12;;;;;;;5.65;2.50;;;;;;;16.58;98.05;99348.78;5097723;28;20394;-81
2022/11/01 10:42:38;;;;;;;4.45;1.50;;;;;;;16.45;97.56;99327.78;5089069;28;20056;-81
2022/11/01 10:45:07;;;;;;;3.22;1.35;;;;;;;16.54;94.79;99352.19;5087955;28;20054;-81
2022/11/01 10:47:34;;;;;;;8.97;2.77;;;;;;;16.50;95.23;99327.13;5096571;28;20052;-81
2022/11/01 10:50:05;;;;;;;6.95;1.85;;;;;;;16.63;91.17;99338.03;5090306;28;20132;-82
2022/11/01 10:52:41;;;;;;;4.57;1.73;;;;;;;16.61;92.47;99347.53;5097072;28;20052;-81
2022/11/01 10:55:15;;;;;;;5.25;1.80;;;;;;;16.58;92.03;99339.72;5108850;28;20058;-82
2022/11/01 10:57:48;;;;;;;3.63;1.85;;;;;;;16.71;93.10;99328.69;5090742;28;20051;-81
2022/11/01 11:00:17;;;;;;;6.38;2.75;;;;;;;16.75;93.89;99338.13;5092347;28;20058;-81
2022/11/01 11:02:48;;;;;;;8.83;2.80;;;;;;;16.83;93.73;99334.31;5099763;28;20066;-85
2022/11/01 11:05:17;;;;;;;6.50;1.92;;;;;;;16.89;93.60;99349.91;5096013;28;20055;-84
2022/11/01 11:07:44;;;;;;;8.77;2.85;;;;;;;16.89;90.47;99335.34;5095918;28;20480;-84
2022/11/01 11:10:18;;;;;;;4.85;1.25;;;;;;;16.95;88.62;99342.69;5106085;28;20135;-85
2022/11/01 11:12:47;;;;;;;4.85;1.98;;;;;;;16.94;88.28;99347.34;5102391;28;20070;-83
2022/11/01 11:15:18;;;;;;;8.07;2.10;;;;;;;16.90;86.50;99337.84;5095917;28;20127;-89
2022/11/01 11:17:46;;;;;;;4.05;1.23;;;;;;;16.98;86.60;99348.59;5108918;28;20062;-84
2022/11/01 11:20:24;;;;;;;3.55;1.05;;;;;;;16.94;85.08;99338.28;5118081;27;20039;-85
2022/11/01 11:22:53;;;;;;;3.10;1.10;;;;;;;16.86;87.29;99349.47;5127143;27;20587;-84
2022/11/01 11:25:22;;;;;;;4.15;1.25;;;;;;;16.84;87.61;99343.38;5111917;28;20044;-85
2022/11/01 11:27:52;;;;;;;3.90;1.10;;;;;;;16.86;89.66;99339.34;5120897;28;20061;-85
2022/11/01 11:30:31;;;;;;;1.90;1.00;;;;;;;16.95;89.48;99354.53;5113952;27;20052;-85
2022/11/01 11:32:58;;;;;;;2.15;0.82;;;;;;;16.88;86.97;99355.63;5102120;28;20051;-85
2022/11/01 11:35:27;;;;;;;3.88;1.17;;;;;;;16.92;87.87;99346.72;5113892;28;20043;-84
2022/11/01 11:37:57;;;;;;;3.05;0.98;;;;;;;16.80;84.53;99351.19;5105438;28;20039;-85
2022/11/01 11:40:26;;;;;;;2.42;0.93;;;;;;;16.73;84.51;99348.50;5108967;28;20112;-85
2022/11/01 11:42:55;;;;;;;2.70;1.02;;;;;;;16.85;86.74;99359.63;5096389;28;20043;-85
2022/11/01 11:45:27;;;;;;;2.63;0.90;;;;;;;16.72;86.33;99352.31;5114096;28;20127;-84
2022/11/01 11:47:54;;;;;;;2.28;1.20;;;;;;;16.71;83.99;99345.16;5106506;28;20386;-84
2022/11/01 11:50:34;;;;;;;3.00;1.13;;;;;;;16.71;85.85;99345.16;5100921;28;20046;-85
2022/11/01 11:53:08;;;;;;;3.90;1.15;;;;;;;16.68;87.27;99340.09;5112713;28;20236;-85
2022/11/01 11:55:42;;;;;;;4.22;1.02;;;;;;;16.77;87.20;99352.50;5098800;28;20130;-85
2022/11/01 11:58:27;;;;;;;3.15;0.95;;;;;;;16.61;89.65;99345.63;5112492;27;20040;-87
2022/11/01 12:00:59;;;;;;;5.20;1.30;;;;;;;16.46;92.30;99343.16;5100185;28;20047;-88
2022/11/01 12:03:27;;;;;;;2.25;1.13;;;;;;;16.50;93.55;99351.81;5113649;28;20071;-87
2022/11/01 12:06:00;;;;;;;3.25;1.40;;;;;;;16.66;95.28;99374.31;5106524;28;20093;-86
2022/11/01 12:11:40;;;;;;;3.72;1.45;;;;;;;16.24;98.11;99358.25;5111318;28;20078;-84
2022/11/01 12:14:19;;;;;;;3.42;1.73;;;;;;;16.13;99.96;99383.63;5109181;28;20044;-86
2022/11/01 12:16:45;;;;;;;5.60;1.73;;;;;;;15.97;100.00;99362.97;5094605;28;20131;-86
2022/11/01 12:19:23;;;;;;;5.10;1.42;;;;;;;16.05;100.00;99380.06;5093429;28;20650;-85
2022/11/01 12:21:54;;;;;;;4.38;1.30;;;;;;;16.07;100.00;99382.56;5106796;28;20048;-84
2022/11/01 12:24:29;;;;;;;5.47;1.58;;;;;;;16.12;99.57;99381.94;5114052;28;20168;-85
2022/11/01 12:27:03;;;;;;;8.52;1.88;;;;;;;16.24;100.00;99370.06;5107796;28;20101;-86
2022/11/01 12:29:35;;;;;;;5.15;1.60;;;;;;;16.42;94.34;99368.50;5107193;27;20044;-85
2022/11/01 12:32:08;;;;;;;2.47;1.60;;;;;;;16.46;93.36;99367.84;5104348;28;20155;-85
2022/11/01 12:34:39;;;;;;;5.68;1.58;;;;;;;16.45;93.55;99377.16;5112838;28;20044;-85
2022/11/01 12:37:14;;;;;;;2.65;1.13;;;;;;;16.37;93.60;99366.41;5113510;28;20048;-85
2022/11/01 12:39:49;;;;;;;3.53;1.23;;;;;;;16.38;93.51;99361.75;5113398;28;20048;-86
2022/11/01 12:42:23;;;;;;;4.60;1.35;;;;;;;16.44;92.51;99377.38;5111268;28;20104;-84
2022/11/01 12:44:54;;;;;;;5.38;1.30;;;;;;;16.42;92.50;99388.59;5103506;28;20094;-84
2022/11/01 12:47:25;;;;;;;5.38;1.30;;;;;;;16.53;91.96;99373.31;5106542;28;20047;-84
2022/11/01 12:49:56;;;;;;;7.75;1.45;;;;;;;16.57;89.66;99380.03;5108578;28;20066;-85
2022/11/01 12:52:28;;;;;;;3.88;1.10;;;;;;;16.51;89.45;99367.19;5096288;28;20062;-84
2022/11/01 12:55:06;;;;;;;7.65;1.52;;;;;;;16.43;90.57;99370.19;5094184;28;20056;-86
2022/11/01 12:57:33;;;;;;;3.22;1.13;;;;;;;16.52;88.60;99379.88;5095645;28;20127;-84
2022/11/01 13:00:03;;;;;;;4.30;1.20;;;;;;;16.38;88.33;99375.47;5100295;28;20043;-84
2022/11/01 13:02:40;;;;;;;3.80;1.25;;;;;;;16.42;87.31;99355.66;5110749;28;20066;-84
2022/11/01 13:05:15;;;;;;;3.03;1.25;;;;;;;16.50;88.39;99373.75;5106622;28;20442;-85
2022/11/01 13:07:55;;;;;;;6.68;1.17;;;;;;;16.59;87.85;99379.81;5096046;28;20512;-85
2022/11/01 13:10:32;;;;;;;5.85;1.35;;;;;;;16.52;85.94;99360.66;5110269;28;20054;-85
2022/11/01 13:13:06;;;;;;;1.42;1.02;;;;;;;16.27;87.16;99372.38;5104769;28;20040;-86
2022/11/01 13:15:42;;;;;;;3.90;1.83;;;;;;;16.16;85.55;99369.47;5096188;28;20077;-85
2022/11/01 13:18:15;;;;;;;3.30;1.15;;;;;;;16.12;86.60;99387.41;5104365;28;20047;-85
2022/11/01 13:20:53;;;;;;;3.70;1.20;;;;;;;16.16;86.61;99356.59;5094726;27;20451;-85
2022/11/01 13:23:27;;;;;;;6.22;1.63;;;;;;;16.30;84.93;99348.31;5109446;28;20142;-85
2022/11/01 13:26:01;;;;;;;6.15;1.10;;;;;;;16.57;87.46;99366.31;5110886;28;20043;-84
2022/11/01 13:28:42;;;;;;;2.60;1.13;;;;;;;16.52;84.35;99352.41;5111799;28;20075;-85
2022/11/01 13:31:17;;;;;;;3.90;0.73;;;;;;;16.58;83.46;99343.31;5108955;28;20108;-86
2022/11/01 13:33:53;;;;;;;8.75;1.30;;;;;;;16.39;85.22;99352.47;5093984;28;20400;-85
2022/11/01 13:36:26;;;;;;;5.25;1.17;;;;;;;16.40;83.59;99381.63;5105577;28;20119;-85
2022/11/01 13:39:02;;;;;;;9.30;1.50;;;;;;;16.51;83.11;99366.38;5099719;28;20127;-84
2022/11/01 13:41:38;;;;;;;4.65;1.30;;;;;;;16.67;82.90;99365.84;5104504;28;20043;-84
2022/11/01 13:44:12;;;;;;;3.88;1.10;;;;;;;16.50;81.22;99364.66;5106336;28;20462;-84
2022/11/01 13:46:59;;;;;;;5.63;1.00;;;;;;;16.45;81.88;99348.88;5102942;28;20479;-86
2022/11/01 13:49:43;;;;;;;3.75;1.25;;;;;;;16.58;82.57;99357.03;5091635;28;20056;-86
2022/11/01 13:52:16;;;;;;;3.78;1.08;;;;;;;16.67;82.28;99367.78;5091406;28;20494;-86
2022/11/01 13:54:51;;;;;;;3.25;1.30;;;;;;;16.60;80.93;99376.03;5107171;28;20131;-86
2022/11/01 13:57:23;;;;;;;4.05;1.30;;;;;;;16.48;81.42;99380.53;5104865;28;20493;-85
2022/11/01 13:59:56;;;;;;;3.75;1.08;;;;;;;16.52;81.01;99379.88;5102983;28;20048;-86
2022/11/01 14:02:48;;;;;;;3.97;1.00;;;;;;;16.38;81.53;99361.75;5098068;28;20391;-85
2022/11/01 14:05:14;;;;;;;2.40;1.10;;;;;;;16.49;82.55;99354.78;5091019;28;20058;-86
2022/11/01 14:08:13;;;;;;;4.60;1.30;;;;;;;16.51;80.22;99356.22;5104302;28;20470;-85
2022/11/01 14:10:49;;;;;;;5.20;1.15;;;;;;;16.33;80.52;99345.97;5100493;28;20052;-86
2022/11/01 14:13:19;;;;;;;7.63;1.85;;;;;;;16.31;79.85;99359.06;5098882;28;20441;-86
2022/11/01 14:16:21;;;;;;;5.13;1.98;;;;;;;16.30;80.35;99362.03;5100687;28;20055;-87
2022/11/01 14:19:13;;;;;;;6.53;1.00;;;;;;;16.44;80.72;99359.00;5095902;28;20044;-86
2022/11/01 14:21:42;;;;;;;4.93;1.27;;;;;;;16.24;79.88;99372.81;5099626;28;20266;-85
2022/11/01 14:24:19;;;;;;;7.50;1.40;;;;;;;16.28;81.30;99375.97;5103406;28;20516;-85
2022/11/01 14:27:12;;;;;;;4.43;1.08;;;;;;;16.28;81.14;99365.81;5100553;28;20050;-86
2022/11/01 14:29:41;;;;;;;3.78;1.02;;;;;;;16.07;81.64;99346.94;5102883;28;20074;-86
2022/11/01 14:32:11;;;;;;;5.07;1.13;;;;;;;16.15;80.83;99354.91;5095906;28;20406;-85
2022/11/01 14:34:38;;;;;;;10.10;1.17;;;;;;;16.31;81.76;99367.28;5107014;28;20047;-86
2022/11/01 14:37:20;;;;;;;3.25;1.10;;;;;;;16.27;81.04;99375.13;5107519;28;20290;-86
2022/11/01 14:40:02;;;;;;;10.52;1.65;;;;;;;16.19;81.66;99383.59;5103093;28;20239;-86
2022/11/01 14:42:37;;;;;;;7.95;1.30;;;;;;;16.00;80.56;99359.81;5098182;28;20043;-86
2022/11/01 14:45:16;;;;;;;1.70;0.90;;;;;;;15.94;81.76;99369.72;5101516;28;20044;-86
2022/11/01 14:47:43;;;;;;;5.10;1.30;;;;;;;16.00;81.54;99368.88;5091923;28;20062;-86
2022/11/01 14:50:20;;;;;;;7.07;1.83;;;;;;;16.07;82.62;99405.34;5093572;28;20134;-86
2022/11/01 14:52:55;;;;;;;3.53;1.13;;;;;;;15.97;82.89;99384.91;5103996;28;20051;-85
2022/11/01 14:55:25;;;;;;;8.80;1.17;;;;;;;15.78;82.04;99370.19;5103737;28;20043;-86
2022/11/01 14:58:06;;;;;;;2.53;0.93;;;;;;;15.63;85.07;99378.63;5097440;28;20143;-86
2022/11/01 15:00:35;;;;;;;3.65;0.90;;;;;;;15.55;85.22;99391.50;5098775;28;20157;-86
2022/11/01 15:03:02;;;;;;;4.72;1.17;;;;;;;15.42;87.03;99396.97;5098852;28;20185;-85
2022/11/01 15:05:28;;;;;;;3.10;0.93;;;;;;;15.43;87.75;99397.81;5105570;28;20047;-86
2022/11/01 15:07:57;;;;;;;3.72;1.35;;;;;;;15.12;87.53;99400.13;5111194;28;20047;-85
2022/11/01 15:10:25;;;;;;;9.57;1.30;;;;;;;15.10;88.36;99412.31;5096625;28;20083;-85
2022/11/01 15:12:54;;;;;;;2.60;1.05;;;;;;;15.04;88.28;99390.22;5111804;28;20043;-86
2022/11/01 15:15:23;;;;;;;3.93;1.03;;;;;;;15.13;88.28;99392.72;5107255;28;20491;-86
2022/11/01 15:17:55;;;;;;;4.55;1.02;;;;;;;15.22;88.06;99394.25;5106539;28;20840;-85
2022/11/01 15:20:25;;;;;;;3.05;0.93;;;;;;;15.14;88.15;99403.47;5100808;27;20782;-85
2022/11/01 15:22:54;;;;;;;5.50;0.93;;;;;;;14.85;87.58;99377.34;5093350;28;20043;-86
2022/11/01 15:25:25;;;;;;;3.43;1.13;;;;;;;15.00;88.91;99401.78;5091618;28;20066;-85
2022/11/01 15:27:52;;;;;;;4.50;1.45;;;;;;;14.92;89.84;99404.72;5098932;28;20390;-85
2022/11/01 15:30:21;;;;;;;8.20;1.17;;;;;;;14.82;91.21;99383.22;5091631;28;20036;-85
2022/11/01 15:32:53;;;;;;;5.43;1.75;;;;;;;14.90;92.31;99409.56;5094631;28;20179;-86
2022/11/01 15:35:24;;;;;;;2.47;1.20;;;;;;;14.75;93.33;99394.13;5094971;28;20083;-86
2022/11/01 15:37:53;;;;;;;5.68;1.75;;;;;;;14.66;93.33;99389.91;5099230;28;20059;-85
2022/11/01 15:40:38;;;;;;;3.47;0.98;;;;;;;14.68;93.63;99396.03;5097687;28;20050;-85
2022/11/01 15:43:05;;;;;;;4.32;1.08;;;;;;;14.61;94.56;99417.06;5098387;28;20569;-85
2022/11/01 15:45:34;;;;;;;7.47;1.15;;;;;;;14.39;95.15;99384.34;5096486;28;20055;-84
2022/11/01 15:48:08;;;;;;;4.57;1.27;;;;;;;14.49;95.20;99400.34;5091908;28;20084;-85
2022/11/01 15:50:37;;;;;;;4.63;1.42;;;;;;;14.40;95.19;99394.22;5097064;28;20628;-85
2022/11/01 15:53:09;;;;;;;11.80;1.48;;;;;;;14.31;95.88;99399.00;5094145;28;20170;-85
2022/11/01 15:55:40;;;;;;;5.93;1.73;;;;;;;14.32;95.51;99419.84;5096591;28;20051;-84
2022/11/01 15:58:17;;;;;;;7.22;1.48;;;;;;;14.40;95.83;99423.47;5101283;28;20050;-84
2022/11/01 16:00:48;;;;;;;4.15;0.90;;;;;;;14.29;95.98;99406.59;5113844;28;20055;-85
2022/11/01 16:03:23;;;;;;;3.58;1.48;;;;;;;14.23;98.30;99417.50;5112311;28;20063;-85
2022/11/01 16:05:53;;;;;;;9.68;1.27;;;;;;;14.23;100.00;99403.81;5103265;28;20394;-86
2022/11/01 16:08:23;;;;;;;6.25;1.20;;;;;;;14.12;100.00;99413.41;5097156;28;20044;-85
2022/11/01 16:10:50;;;;;;;5.90;1.70;;;;;;;13.87;100.00;99415.81;5092676;28;20043;-86
2022/11/01 16:13:19;;;;;;;7.45;1.63;;;;;;;13.74;100.00;99420.13;5097305;28;20059;-85
2022/11/01 16:16:00;;;;;;;4.03;1.37;;;;;;;13.69;100.00;99430.81;5097693;28;20506;-86
2022/11/01 16:18:33;;;;;;;4.60;1.38;;;;;;;13.41;100.00;99423.47;5098066;28;20498;-86
2022/11/01 16:21:02;;;;;;;5.88;1.55;;;;;;;13.45;100.00;99435.66;5097878;28;20422;-85
2022/11/01 16:23:28;;;;;;;5.20;1.80;;;;;;;13.41;100.00;99439.84;5095213;28;20063;-86
2022/11/01 16:26:04;;;;;;;6.22;1.90;;;;;;;13.45;100.00;99441.13;5099266;28;20083;-85
2022/11/01 16:28:36;;;;;;;6.10;2.03;;;;;;;13.41;100.00;99458.97;5098066;28;20044;-85
2022/11/01 16:31:03;;;;;;;8.93;1.70;;;;;;;13.15;100.00;99451.31;5098388;28;20043;-85
2022/11/01 16:33:44;;;;;;;5.78;1.90;;;;;;;12.85;100.00;99437.78;5099118;28;20516;-86
2022/11/01 16:36:40;;;;;;;5.32;1.95;;;;;;;12.80;100.00;99444.88;5099101;28;20368;-85
2022/11/01 16:39:27;;;;;;;5.95;1.63;;;;;;;12.89;100.00;99463.66;5056855;27;20046;-85
2022/11/01 16:41:54;;;;;;;6.30;1.67;;;;;;;12.54;100.00;99452.53;5105349;28;20403;-86
2022/11/01 16:44:21;;;;;;;5.28;1.63;;;;;;;12.50;100.00;99459.41;5106643;28;20043;-85
2022/11/01 16:46:49;;;;;;;4.95;1.52;;;;;;;12.52;100.00;99470.13;5110016;28;20051;-85
2022/11/01 16:49:22;;;;;;;3.67;1.50;;;;;;;12.29;100.00;99465.63;5106570;28;20046;-86
2022/11/01 16:51:49;;;;;;;6.07;2.17;;;;;;;12.19;100.00;99468.66;5097866;28;20114;-85
2022/11/01 16:54:16;;;;;;;5.75;1.33;;;;;;;12.17;100.00;99476.16;5097281;28;20055;-85
2022/11/01 16:56:46;;;;;;;7.47;1.70;;;;;;;12.23;100.00;99481.91;5109926;28;20131;-85
2022/11/01 16:59:24;;;;;;;2.00;1.30;;;;;;;12.06;100.00;99459.41;5110415;28;20073;-85
2022/11/01 17:01:53;;;;;;;3.95;1.90;;;;;;;12.09;100.00;99476.25;5107197;28;20052;-85
2022/11/01 17:04:22;;;;;;;7.65;2.00;;;;;;;11.97;100.00;99478.59;5103692;28;20498;-85
2022/11/01 17:06:49;;;;;;;7.00;1.90;;;;;;;12.08;100.00;99493.63;5105658;28;20509;-85
2022/11/01 17:09:17;;;;;;;2.38;1.38;;;;;;;11.97;100.00;99478.59;5104669;28;20126;-85
2022/11/01 17:11:46;;;;;;;7.75;2.17;;;;;;;11.98;100.00;99495.78;5109902;28;20043;-85
2022/11/01 17:14:13;;;;;;;5.97;1.60;;;;;;;11.88;100.00;99496.03;5102875;28;20044;-86
2022/11/01 17:16:43;;;;;;;4.53;1.38;;;;;;;11.83;100.00;99485.69;5108223;28;20053;-85
2022/11/01 17:19:17;;;;;;;4.75;1.50;;;;;;;11.87;100.00;99494.31;5108299;28;20409;-85
2022/11/01 17:21:45;;;;;;;4.97;1.60;;;;;;;12.02;100.00;99505.28;5102933;28;20545;-85
2022/11/01 17:24:15;;;;;;;3.50;1.20;;;;;;;11.94;100.00;99505.34;5106745;28;20043;-85
2022/11/01 17:26:42;;;;;;;7.47;4.13;;;;;;;11.86;100.00;99498.94;5109990;28;20585;-85
2022/11/01 17:29:12;;;;;;;8.90;1.67;;;;;;;12.02;100.00;99519.75;5100457;28;20044;-85
2022/11/01 17:31:39;;;;;;;5.57;1.40;;;;;;;11.90;100.00;99514.91;5105747;28;20044;-85
2022/11/01 17:34:05;;;;;;;4.53;1.10;;;;;;;11.87;100.00;99510.66;5096202;28;20054;-85
2022/11/01 17:36:34;;;;;;;3.28;1.42;;;;;;;11.88;100.00;99509.66;5107598;28;20406;-85
2022/11/01 17:39:02;;;;;;;10.52;1.77;;;;;;;11.77;100.00;99507.34;5092067;28;20047;-85
2022/11/01 17:41:29;;;;;;;8.00;2.08;;;;;;;11.84;100.00;99520.06;5108509;28;20043;-85
2022/11/01 17:43:56;;;;;;;3.53;1.83;;;;;;;11.86;100.00;99519.88;5105621;28;20050;-85
2022/11/01 17:46:25;;;;;;;7.15;2.70;;;;;;;11.82;100.00;99504.94;5109150;28;20050;-85
2022/11/01 17:48:52;;;;;;;4.80;2.25;;;;;;;11.80;100.00;99504.25;5106771;28;20543;-85
2022/11/01 17:51:19;;;;;;;6.15;2.10;;;;;;;11.87;100.00;99516.94;5106389;28;20122;-85
2022/11/01 17:53:45;;;;;;;2.95;1.45;;;;;;;11.85;100.00;99507.28;5096603;28;20040;-85
2022/11/01 17:56:14;;;;;;;4.38;1.77;;;;;;;11.82;100.00;99515.84;5105352;28;20103;-85
2022/11/01 17:58:41;;;;;;;11.35;1.98;;;;;;;11.78;100.00;99514.50;5101823;28;20511;-85
2022/11/01 18:01:08;;;;;;;4.40;1.73;;;;;;;11.73;100.00;99506.03;5107660;28;20065;-85
2022/11/01 18:03:34;;;;;;;4.22;1.30;;;;;;;11.68;100.00;99512.88;5097478;28;20043;-85
2022/11/01 18:06:01;;;;;;;3.63;1.20;;;;;;;11.74;100.00;99522.19;5106904;28;20398;-84
2022/11/01 18:08:33;;;;;;;4.38;1.48;;;;;;;11.71;100.00;99514.38;5107210;28;20050;-85
2022/11/01 18:11:09;;;;;;;5.55;1.52;;;;;;;11.65;100.00;99523.28;5097143;28;20075;-85
2022/11/01 18:13:46;;;;;;;3.55;1.27;;;;;;;11.69;100.00;99520.00;5096521;28;20040;-84
2022/11/01 18:16:26;;;;;;;9.60;2.25;;;;;;;11.51;100.00;99501.25;5108760;28;20502;-84
2022/11/01 18:19:13;;;;;;;3.50;1.70;;;;;;;11.68;100.00;99529.22;5097020;28;20270;-85
2022/11/01 18:21:52;;;;;;;3.25;1.17;;;;;;;11.55;100.00;99528.13;5092775;28;20134;-85
2022/11/01 18:24:30;;;;;;;10.82;1.45;;;;;;;11.55;100.00;99539.03;5102123;28;20044;-85
2022/11/01 18:26:57;;;;;;;8.38;2.50;;;;;;;11.59;100.00;99534.91;5102369;28;20043;-85
2022/11/01 18:29:25;;;;;;;8.52;2.35;;;;;;;11.61;100.00;99539.16;5101093;28;20143;-85
2022/11/01 18:32:01;;;;;;;7.90;1.83;;;;;;;11.59;100.00;99535.78;5103494;28;20054;-85
2022/11/01 18:34:39;;;;;;;6.32;2.33;;;;;;;11.71;100.00;99541.63;5099223;28;20138;-85
2022/11/01 18:37:19;;;;;;;6.18;1.90;;;;;;;11.67;100.00;99538.41;5101578;28;20058;-85
2022/11/01 18:39:54;;;;;;;7.07;3.08;;;;;;;11.63;100.00;99528.91;5097565;28;20058;-85
2022/11/01 18:42:21;;;;;;;3.83;2.78;;;;;;;11.67;100.00;99529.41;5108732;28;20047;-85
2022/11/01 18:44:50;;;;;;;7.38;3.15;;;;;;;11.69;100.00;99536.34;5108473;28;20043;-85
2022/11/01 18:47:20;;;;;;;6.05;2.67;;;;;;;11.68;100.00;99520.19;5106049;28;20060;-85
2022/11/01 18:49:52;;;;;;;4.70;1.88;;;;;;;11.58;100.00;99525.06;5110789;28;20586;-85
2022/11/01 18:52:19;;;;;;;4.32;1.70;;;;;;;11.54;100.00;99530.00;5103635;28;20127;-85
2022/11/01 18:54:48;;;;;;;6.93;1.75;;;;;;;11.57;100.00;99537.81;5111905;28;20048;-85
2022/11/01 18:57:17;;;;;;;11.52;1.88;;;;;;;11.43;100.00;99509.50;5113877;28;20051;-85
2022/11/01 18:59:46;;;;;;;6.95;1.92;;;;;;;11.46;100.00;99522.75;5111104;28;20076;-85
2022/11/01 19:02:19;;;;;;;3.30;1.65;;;;;;;11.55;100.00;99544.47;5106372;28;20048;-85
2022/11/01 19:04:46;;;;;;;3.08;1.85;;;;;;;11.46;100.00;99530.09;5110573;28;20097;-85
2022/11/01 19:07:15;;;;;;;6.65;2.08;;;;;;;11.55;100.00;99539.03;5105697;28;20066;-85
2022/11/01 19:09:49;;;;;;;5.70;2.20;;;;;;;11.55;100.00;99545.34;5108978;28;20120;-85
2022/11/01 19:12:18;;;;;;;8.30;2.80;;;;;;;11.43;100.00;99517.69;5105904;28;20145;-85
2022/11/01 19:14:49;;;;;;;7.30;2.17;;;;;;;11.58;100.00;99531.34;5093979;28;20138;-85
2022/11/01 19:17:24;;;;;;;10.73;1.92;;;;;;;11.77;100.00;99542.75;5094589;28;20048;-85
2022/11/01 19:19:51;;;;;;;7.38;1.85;;;;;;;11.69;100.00;99536.34;5096004;28;20051;-85
2022/11/01 19:22:31;;;;;;;8.98;2.22;;;;;;;11.65;100.00;99539.63;5112096;28;20502;-85
2022/11/01 19:24:58;;;;;;;7.93;3.13;;;;;;;11.65;100.00;99545.06;5102377;28;20364;-84
2022/11/01 19:27:25;;;;;;;9.10;3.15;;;;;;;11.71;100.00;99529.88;5112608;28;20058;-85
2022/11/01 19:29:53;;;;;;;6.30;2.28;;;;;;;11.55;100.00;99539.03;5110602;28;20040;-85
2022/11/01 19:32:24;;;;;;;3.58;2.40;;;;;;;11.58;100.00;99530.50;5110215;28;20085;-85
2022/11/01 19:34:52;;;;;;;13.70;2.85;;;;;;;11.66;100.00;99531.28;5108129;28;20051;-85
2022/11/01 19:37:25;;;;;;;8.60;3.05;;;;;;;11.46;100.00;99503.72;5109540;28;20111;-85
2022/11/01 19:39:54;;;;;;;7.30;2.80;;;;;;;11.51;100.00;99528.50;5095083;28;20576;-85
2022/11/01 19:42:26;;;;;;;4.05;2.53;;;;;;;11.56;100.00;99535.28;5107844;28;20140;-85
2022/11/01 19:44:56;;;;;;;9.48;3.72;;;;;;;11.52;100.00;99534.81;5101393;28;20051;-85
2022/11/01 19:47:30;;;;;;;;;;;;;;;11.26;100.00;99541.47;5112152;28;20473;-85
2022/11/01 19:49:57;;;;;;;5.70;3.47;;;;;;;11.18;100.00;99529.78;5106462;28;19976;-85
2022/11/01 19:52:26;;;;;;;4.38;2.58;;;;;;;11.19;100.00;99536.91;5107342;28;20050;-85
2022/11/01 19:54:54;;;;;;;5.60;2.70;;;;;;;11.03;100.00;99532.41;5101459;28;20048;-85
2022/11/01 19:57:27;;;;;;;14.05;3.47;;;;;;;11.02;100.00;99526.13;5103968;28;20044;-84
2022/11/01 19:59:58;;;;;;;5.38;2.35;;;;;;;11.14;100.00;99537.44;5095148;28;20597;-84
2022/11/01 20:02:24;;;;;;;;;;;;;;;10.94;100.00;99547.94;5103688;28;20051;-85
2022/11/01 20:04:56;;;;;;;5.32;1.83;;;;;;;10.86;100.00;99523.50;5105001;28;19934;-85
2022/11/01 20:07:25;;;;;;;6.25;1.98;;;;;;;10.90;100.00;99547.44;5110664;28;20123;-84
2022/11/01 20:09:53;;;;;;;5.23;1.97;;;;;;;10.95;100.00;99547.75;5109730;28;20472;-84
2022/11/01 20:12:22;;;;;;;6.07;2.85;;;;;;;10.89;100.00;99550.34;5103151;27;20298;-85
2022/11/01 20:14:50;;;;;;;20.20;4.88;;;;;;;10.77;100.00;99530.84;5094890;28;20078;-85
2022/11/01 20:17:16;;;;;;;14.35;4.53;;;;;;;10.92;100.00;99549.97;5099562;28;20139;-85
2022/11/01 20:19:44;;;;;;;7.28;2.60;;;;;;;10.94;100.00;99553.38;5101550;28;20039;-84
2022/11/01 20:22:12;;;;;;;5.10;2.08;;;;;;;10.79;100.00;99545.09;5107929;28;20047;-84
2022/11/01 20:24:39;;;;;;;7.10;2.92;;;;;;;10.73;100.00;99537.66;5108615;28;20138;-84
2022/11/01 20:27:06;;;;;;;10.95;3.10;;;;;;;10.86;100.00;99553.41;5101345;28;20047;-85
2022/11/01 20:29:32;;;;;;;10.15;4.15;;;;;;;10.81;100.00;99559.38;5107348;28;20055;-84
2022/11/01 20:31:59;;;;;;;6.80;2.70;;;;;;;10.68;100.00;99545.50;5101102;28;20497;-84
2022/11/01 20:34:29;;;;;;;8.32;2.40;;;;;;;10.48;100.00;99566.78;5108361;28;20071;-85
2022/11/01 20:36:55;;;;;;;11.52;2.90;;;;;;;10.34;100.00;99571.97;5089950;28;20136;-84
2022/11/01 20:39:24;;;;;;;8.77;2.67;;;;;;;10.41;100.00;99581.09;5100441;28;20510;-85
2022/11/01 20:41:51;;;;;;;8.93;2.72;;;;;;;10.30;100.00;99588.72;5109801;27;20270;-84
2022/11/01 20:44:18;;;;;;;3.38;2.05;;;;;;;10.22;100.00;99581.44;5104024;28;20092;-84
2022/11/01 20:46:46;;;;;;;7.18;2.13;;;;;;;10.01;100.00;99561.09;5102280;28;20055;-85
2022/11/01 20:49:12;;;;;;;6.35;2.67;;;;;;;10.24;100.00;99585.69;5104023;28;20048;-84
2022/11/01 20:51:40;;;;;;;10.23;2.35;;;;;;;10.15;100.00;99586.72;5098567;28;20050;-84
2022/11/01 20:54:06;;;;;;;7.15;1.80;;;;;;;10.01;100.00;99574.69;5100711;28;20052;-84
2022/11/01 20:56:35;;;;;;;8.63;2.10;;;;;;;9.79;100.00;99573.50;5105930;28;20052;-84
2022/11/01 20:59:02;;;;;;;7.57;2.78;;;;;;;9.90;100.00;99591.31;5105952;28;20050;-85
2022/11/01 21:01:28;;;;;;;4.82;2.65;;;;;;;9.72;100.00;99578.75;5101651;28;20054;-83
2022/11/01 21:03:56;;;;;;;4.97;2.13;;;;;;;9.70;100.00;99591.66;5104617;28;20043;-85
2022/11/01 21:06:27;;;;;;;6.15;2.47;;;;;;;9.63;100.00;99573.50;5095725;28;20550;-85
2022/11/01 21:08:54;;;;;;;5.38;2.25;;;;;;;9.73;100.00;99583.16;5101210;28;20343;-84
2022/11/01 21:11:42;;;;;;;4.25;2.10;;;;;;;9.45;100.00;99574.50;5100588;28;20056;-84
2022/11/01 21:14:15;;;;;;;4.28;2.58;;;;;;;9.46;100.00;99592.47;5100050;28;20044;-84
2022/11/01 21:16:42;;;;;;;8.77;2.45;;;;;;;9.44;100.00;99593.66;5102887;28;20063;-85
2022/11/01 21:19:17;;;;;;;3.85;2.45;;;;;;;9.37;100.00;99586.19;5094268;28;20040;-84
2022/11/01 21:21:44;;;;;;;8.90;2.45;;;;;;;9.24;100.00;99572.25;5094571;28;20146;-85
2022/11/01 21:24:32;;;;;;;5.57;2.75;;;;;;;9.28;100.00;99568.19;5092341;28;20052;-84
2022/11/01 21:27:25;;;;;;;5.72;2.10;;;;;;;8.95;100.00;99561.84;5096444;28;20067;-84
2022/11/01 21:30:01;;;;;;;5.18;2.45;;;;;;;8.97;100.00;99593.22;5097214;28;20051;-84
2022/11/01 21:32:33;;;;;;;3.83;2.33;;;;;;;9.12;100.00;99601.56;5094766;28;20051;-83
2022/11/01 21:35:21;;;;;;;6.72;2.40;;;;;;;8.84;100.00;99587.41;5103701;28;20082;-84
2022/11/01 21:37:50;;;;;;;7.28;2.50;;;;;;;8.74;100.00;99584.81;5105813;28;20047;-83
2022/11/01 21:40:25;;;;;;;3.33;1.88;;;;;;;8.79;100.00;99604.16;5098278;28;20126;-83
2022/11/01 21:42:52;;;;;;;5.13;2.80;;;;;;;8.77;100.00;99589.06;5096978;28;20054;-84
2022/11/01 21:45:29;;;;;;;6.68;2.80;;;;;;;8.76;100.00;99600.91;5088237;28;20158;-84
2022/11/01 21:47:59;;;;;;;6.07;2.65;;;;;;;8.63;100.00;99593.25;5097821;28;20043;-84
2022/11/01 21:50:26;;;;;;;;;;;;;;;8.64;100.00;99614.75;5097103;28;20142;-84
2022/11/01 21:52:53;;;;;;;10.63;3.28;;;;;;;8.57;100.00;99621.81;5095811;28;20363;-83
2022/11/01 21:55:20;;;;;;;6.40;3.05;;;;;;;8.59;100.00;99614.38;5097138;28;20063;-83
2022/11/01 21:57:47;;;;;;;7.30;3.53;;;;;;;8.45;100.00;99586.03;5104609;28;20124;-84
2022/11/01 22:00:14;;;;;;;8.82;4.10;;;;;;;8.62;100.00;99599.66;5091871;28;20135;-84
2022/11/01 22:02:42;;;;;;;7.55;3.40;;;;;;;8.46;100.00;99601.28;5101841;28;20040;-84
2022/11/01 22:05:09;;;;;;;4.88;3.17;;;;;;;8.45;100.00;99586.03;5100451;28;20039;-84
2022/11/01 22:07:35;;;;;;;4.72;3.63;;;;;;;8.41;100.00;99581.91;5102806;28;20143;-84
2022/11/01 22:10:02;;;;;;;4.00;2.83;;;;;;;8.33;100.00;99603.53;5098106;28;20139;-84
2022/11/01 22:12:29;;;;;;;4.95;3.05;;;;;;;8.16;100.00;99599.88;5098546;28;20085;-83